Home / Local Weather & Traffic / California / Grapevine Past Weather

Grapevine, CA Past Weather

Last 10 Days

 
High: 53ºf @2:13 PM    Low: 38ºf @2:13 AM    Approx. Precipitation / Rain Total: 0 in.
Time (PST)Temp. (ºf)Humidity (%)Dew Point (ºf)Barometer (inHG)Wind Speed (mph)Wind DirectionWind Gust (mph)1hr. Precip / Rain Total (in.)Snow Depth
2:13 PM532417.19-2.61ssw10.43--
1:13 PM502515.58-7.82sse17.38--
12:13 PM472613.92-14.77sse20.86--
11:13 AM472714.78-15.64sse19.99--
10:13 AM472714.78-12.17sse14.77--
9:13 AM492211.83-5.21sse6.08--
8:13 AM492110.79-2.61se3.48--
7:13 AM432610.49---5.21--
6:13 AM41279.61-4.34s8.69--
5:13 AM402910.34-4.34se7.82--
4:13 AM402910.34-6.95se12.17--
3:13 AM393312.36-10.43se13.03--
2:13 AM383714.07-10.43sse14.77--
1:13 AM393815.57-11.3sse14.77--
12:13 AM394217.88-11.3sse14.77--
High: 46ºf @1:13 PM    Low: 39ºf @7:13 AM    Approx. Precipitation / Rain Total: 0 in.
Time (PST)Temp. (ºf)Humidity (%)Dew Point (ºf)Barometer (inHG)Wind Speed (mph)Wind DirectionWind Gust (mph)1hr. Precip / Rain Total (in.)Snow Depth
10:13 PM404520.39-9.56sse13.03--
9:13 PM404922.4-6.95sse9.56--
8:13 PM424723.25-3.48sse5.21--
7:13 PM415124.27-2.61sse5.21--
6:13 PM405324.27-2.61sse6.08--
5:13 PM425024.72-3.48se9.56--
4:13 PM454524.95-8.69sse14.77--
3:13 PM454524.95-13.03sse21.72--
2:13 PM464525.86-18.25sse24.33--
1:13 PM465229.37-17.38sse26.07--
12:13 PM464827.42-19.99sse27.81--
11:13 AM455027.49-19.12sse26.94--
10:13 AM444624.57-19.99sse25.2--
9:13 AM434724.16-16.51sse20.86--
8:13 AM424723.25-13.03sse18.25--
7:13 AM394720.5-14.77sse19.99--
6:13 AM423516.36-14.77se17.38--
5:13 AM423012.84-9.56se13.03--
3:13 AM403615.23-5.21n6.95--
2:13 AM413515.47-6.08n7.82--
12:13 AM413817.36-5.21nw6.08--
High: 51ºf @1:13 PM    Low: 39ºf @6:13 PM    Approx. Precipitation / Rain Total: 0 in.
Time (PST)Temp. (ºf)Humidity (%)Dew Point (ºf)Barometer (inHG)Wind Speed (mph)Wind DirectionWind Gust (mph)1hr. Precip / Rain Total (in.)Snow Depth
11:13 PM413414.81-5.21nw6.08--
10:13 PM413213.43-4.34nnw6.95--
9:13 PM413314.13-5.21nnw7.82--
8:13 PM404319.33-6.08nw7.82--
7:13 PM403615.23-6.08nw7.82--
6:13 PM394418.96-5.21nw8.69--
5:13 PM425928.72-5.21nnw6.95--
4:13 PM475833-5.21sse7.82--
3:13 PM494930.68-5.21sse9.56--
2:13 PM504630.04-8.69sse12.17--
1:13 PM514329.3-9.56sse12.17--
12:13 PM513725.65-9.56sse16.51--
11:13 AM503523.44-10.43sse13.9--
10:13 AM483622.33-10.43sse13.03--
9:13 AM473621.45-6.95sse9.56--
8:13 AM473319.41-4.34se6.08--
7:13 AM413616.12---1.74--
6:13 AM433315.89-1.74wsw3.48--
5:13 AM443417.46-2.61wnw5.21--
4:13 AM453418.34-4.34nw5.21--
3:13 AM453418.34-4.34nw5.21--
2:13 AM443719.42-3.48wnw6.08--
1:13 AM433215.18-5.21w6.08--
12:13 AM413616.12-3.48wnw7.82--
High: 50ºf @1:13 PM    Low: 31ºf @2:13 AM    Approx. Precipitation / Rain Total: 0 in.
Time (PST)Temp. (ºf)Humidity (%)Dew Point (ºf)Barometer (inHG)Wind Speed (mph)Wind DirectionWind Gust (mph)1hr. Precip / Rain Total (in.)Snow Depth
11:13 PM423214.3-6.08n7.82--
10:13 PM442813.02-5.21nw7.82--
8:13 PM423818.26-5.21nnw7.82--
7:13 PM424220.59-5.21nnw9.56--
6:13 PM434322.05-6.08nw12.17--
5:13 PM425024.72-5.21nnw10.43--
4:13 PM425928.72-6.08nnw9.56--
3:13 PM467939.86-5.21nw8.69--
2:13 PM494528.59-6.08nw10.43--
1:13 PM504630.04-5.21nw8.69--
12:13 PM495131.67-6.08wnw8.69--
11:13 AM475431.23-5.21wnw6.08--
10:13 AM496738.53-1.74e6.08--
9:13 AM465731.63-5.21nw7.82--
8:13 AM446131.43-5.21nw7.82--
7:13 AM406830.3-6.08nw10.43--
6:13 AM407131.37-6.95nw12.17--
5:13 AM388132.7-8.69nw11.3--
4:13 AM379134.62-8.69nw10.43--
3:13 AM3110031-6.95n9.56--
2:13 AM319930.75-7.82n10.43--
1:13 AM329530.73-10.43nw13.9--
12:13 AM359433.45-8.69nw13.03--
High: 36ºf @11:13 PM    Low: 30ºf @6:13 AM    Approx. Precipitation / Rain Total: 0 in.
Time (PST)Temp. (ºf)Humidity (%)Dew Point (ºf)Barometer (inHG)Wind Speed (mph)Wind DirectionWind Gust (mph)1hr. Precip / Rain Total (in.)Snow Depth
11:13 PM369434.44-5.21wnw7.82--
10:13 PM3510035-2.61wnw5.21--
9:13 PM3410034-2.61n9.56--
8:13 PM3210032-5.21nnw8.69--
7:13 PM3210032-5.21nw8.69--
6:13 PM3110031-6.95nw9.56--
5:13 PM3210032-5.21n6.95--
4:13 PM3210032-4.34nw6.95--
3:13 PM339832.5-4.34n6.08--
2:13 PM349733.24---3.48--
1:13 PM349833.5-2.61n5.21--
12:13 PM339932.75-4.34n6.08--
11:13 AM3310033-2.61nnw6.08--
10:13 AM339832.5-3.48n4.34--
9:13 AM3110031-4.34n5.21--
8:13 AM3110031---3.48--
7:13 AM3010030---3.48--
6:13 AM3010030------
5:13 AM3010030------
4:13 AM3110031-0.87n4.34--
3:13 AM3110031---3.48--
2:13 AM3110031-2.61nne5.21--
1:13 AM3210032-3.48n4.34--
12:13 AM3210032-0.87nne3.48--
High: 40ºf @2:13 AM    Low: 32ºf @8:13 PM    Approx. Precipitation / Rain Total: 0 in.
Time (PST)Temp. (ºf)Humidity (%)Dew Point (ºf)Barometer (inHG)Wind Speed (mph)Wind DirectionWind Gust (mph)1hr. Precip / Rain Total (in.)Snow Depth
11:13 PM3210032-2.61n4.34--
10:13 PM3210032---3.48--
9:13 PM3210032-3.48ne6.08--
8:13 PM3210032---6.08--
7:13 PM3310033-6.08nne9.56--
6:13 PM3510035-5.21ne7.82--
5:13 PM3610036-3.48n8.69--
3:13 PM379736.23-6.08n10.43--
2:13 PM408937.02-6.08sse13.03--
1:13 PM398835.75-6.08ssw13.9--
12:13 PM399838.48-6.95s12.17--
11:13 AM389636.96-7.82sse12.17--
10:13 AM389135.61-5.21ene12.17--
9:13 AM398334.28-3.48nnw10.43--
8:13 AM407833.7-3.48wsw16.51--
7:13 AM387731.44-7.82sse27.81--
6:13 AM398133.67-19.12ssw30.41--
5:13 AM398334.28-13.9sw24.33--
4:13 AM398334.28-8.69s19.12--
3:13 AM388634.19-13.9sse19.12--
2:13 AM407532.73-12.17s17.38--
1:13 AM389937.74-6.95sse12.17--
12:13 AM389737.23-2.61s9.56--
High: 47ºf @1:13 PM    Low: 38ºf @7:13 PM    Approx. Precipitation / Rain Total: 0 in.
Time (PST)Temp. (ºf)Humidity (%)Dew Point (ºf)Barometer (inHG)Wind Speed (mph)Wind DirectionWind Gust (mph)1hr. Precip / Rain Total (in.)Snow Depth
11:13 PM389737.23-2.61ese8.69--
10:13 PM389636.96-3.48s5.21--
9:13 PM399337.15-0.87nw4.34--
8:13 PM399337.15-2.61sse5.21--
7:13 PM389536.7------
6:13 PM399537.69-1.74ne4.34--
5:13 PM409237.87-2.61n6.08--
4:13 PM418938.01-2.61n8.69--
3:13 PM428838.71-5.21nne9.56--
2:13 PM418436.54-7.82n12.17--
1:13 PM476435.46-5.21nw13.9--
12:13 PM465-21.13-5.21wsw8.69--
11:13 AM41---4.34nw11.3--
10:13 AM423214.3-6.95nw13.9--
9:13 AM41---6.08nne8.69--
8:13 AM41---5.21nnw8.69--
7:13 AM41---5.21n7.82--
5:13 AM41---5.21n9.56--
4:13 AM4210042-7.82nne13.9--
3:13 AM449241.83-5.21n17.38--
2:13 AM459744.2-9.56s14.77--
1:13 AM449843.47-5.21sw19.12--
High: 44ºf @10:13 PM    Low: 37ºf @2:13 AM    Approx. Precipitation / Rain Total: 0 in.
Time (PST)Temp. (ºf)Humidity (%)Dew Point (ºf)Barometer (inHG)Wind Speed (mph)Wind DirectionWind Gust (mph)1hr. Precip / Rain Total (in.)Snow Depth
10:13 PM448-13.49-6.95wsw16.51--
9:13 PM445629.32-3.48wsw9.56--
8:13 PM43---6.95s10.43--
7:13 PM41---4.34s6.08--
6:13 PM41---4.34nw8.69--
5:13 PM41---1.74ssw5.21--
4:13 PM41---2.61nne8.69--
3:13 PM42---6.08n10.43--
1:13 PM42---6.08n11.3--
12:13 PM43---6.95n9.56--
11:13 AM44---7.82nne11.3--
10:13 AM4313-4.43-6.95n12.17--
9:13 AM425326.12-8.69n11.3--
7:13 AM3812-10.03-6.95n12.17--
6:13 AM385221.96-7.82n12.17--
5:13 AM3817-2.89-6.08n8.69--
4:13 AM389-15.74-6.08n7.82--
3:13 AM38---5.21n7.82--
2:13 AM37---6.08n10.43--
1:13 AM38---6.95n8.69--
12:13 AM38---6.95n12.17--
High: 50ºf @3:13 AM    Low: 38ºf @11:13 PM    Approx. Precipitation / Rain Total: 0 in.
Time (PST)Temp. (ºf)Humidity (%)Dew Point (ºf)Barometer (inHG)Wind Speed (mph)Wind DirectionWind Gust (mph)1hr. Precip / Rain Total (in.)Snow Depth
11:13 PM38---6.95n8.69--
10:13 PM38---5.21n9.56--
9:13 PM39---6.08nnw8.69--
8:13 PM39---4.34n7.82--
7:13 PM38---6.08n8.69--
6:13 PM38---6.08-7.82--
5:13 PM38---5.21n13.03--
4:13 PM40---5.21nnw11.3--
3:13 PM40---5.21nne13.03--
1:13 PM42---7.82n13.9--
12:13 PM43---6.95n13.9--
11:13 AM44---4.34ene13.9--
10:13 AM45---7.82nw12.17--
9:13 AM45---4.34nne6.08--
8:13 AM45---1.74nne13.03--
7:13 AM45---4.34nnw8.69--
6:13 AM45---1.74n6.95--
5:13 AM46---3.48nnw14.77--
4:13 AM471-48.79-6.08nnw22.59--
3:13 AM509448.34-27.81sw59.09--
2:13 AM46---7.82ssw21.72--
1:13 AM5010050-13.03sw35.63--
12:13 AM476736.62-5.21ssw26.94--
High: 55ºf @1:13 PM    Low: 44ºf @2:13 AM    Approx. Precipitation / Rain Total: 0 in.
Time (PST)Temp. (ºf)Humidity (%)Dew Point (ºf)Barometer (inHG)Wind Speed (mph)Wind DirectionWind Gust (mph)1hr. Precip / Rain Total (in.)Snow Depth
11:13 PM516138.03-19.12s28.68--
10:13 PM495433.09-21.72sse33.89--
9:13 PM495131.67-23.46sse35.63--
8:13 PM505434.02-19.99sse32.15--
7:13 PM505233.07-22.59sse35.63--
6:13 PM505333.55-28.68sse40.84--
5:13 PM505534.48-26.07sse40.84--
4:13 PM525737.24-31.28sse40.84--
3:13 PM545839.56-25.2sse36.5--
2:13 PM546040.43-25.2sse37.37--
1:13 PM556041.37-25.2sse39.97--
12:13 PM546040.43-26.94s46.92--
11:13 AM536441.15-35.63s46.06--
10:13 AM516941.19-31.28s43.45--
9:13 AM486737.57-37.37s49.53--
8:13 AM457236.53-42.58s58.22--
7:13 AM457437.22-44.32s53.88--
6:13 AM477338.8-39.97s56.48--
5:13 AM477840.5-43.45s56.48--
4:13 AM478442.42-43.45s57.35--
3:13 AM469344.09-42.58s51.27--
2:13 AM449041.26-37.37s45.19--
1:13 AM449241.83-30.41s39.97--
12:13 AM459343.1-23.46s42.58--
High: 47ºf @1:13 PM    Low: 30ºf @4:13 AM    Approx. Precipitation / Rain Total: 0 in.
Time (PST)Temp. (ºf)Humidity (%)Dew Point (ºf)Barometer (inHG)Wind Speed (mph)Wind DirectionWind Gust (mph)1hr. Precip / Rain Total (in.)Snow Depth
11:13 PM469544.65-32.15s46.06--
10:13 PM4510045-37.37s49.53--
9:13 PM455027.49-29.55s38.23--
8:13 PM4215-2.25-21.72sse27.81--
7:13 PM4510045-14.77sse19.99--
6:13 PM449943.74-15.64sse23.46--
5:13 PM456-18.37-14.77s32.15--
4:13 PM44---16.51s30.41--
3:13 PM45---18.25sse29.55--
2:13 PM451-50.02-22.59sse34.76--
1:13 PM47---23.46s33.02--
12:13 PM40---20.86s29.55--
11:13 AM40---20.86s36.5--
10:13 AM42---20.86sse27.81--
9:13 AM40---18.25s26.94--
8:13 AM44---15.64s39.97--
7:13 AM36---24.33sse38.23--
5:13 AM31---19.99s30.41--
4:13 AM30---22.59s27.81--
3:13 AM30---19.12sse26.94--
2:13 AM33---13.03sse16.51--
1:13 AM38---7.82sse19.12--
12:13 AM36---14.77sse24.33--
High: 41ºf @2:13 PM    Low: 28ºf @4:13 AM    Approx. Precipitation / Rain Total: 0 in.
Time (PST)Temp. (ºf)Humidity (%)Dew Point (ºf)Barometer (inHG)Wind Speed (mph)Wind DirectionWind Gust (mph)1hr. Precip / Rain Total (in.)Snow Depth
11:13 PM354-33.09-19.12sse23.46--
10:13 PM344-33.8-19.12sse27.81--
9:13 PM33---17.38sse23.46--
8:13 PM33---13.9sse19.12--
7:13 PM33---13.03sse17.38--
6:13 PM34---11.3sse19.99--
5:13 PM35---13.9sse19.12--
4:13 PM39---13.03sse17.38--
3:13 PM402-41.72-10.43sse15.64--
2:13 PM41---11.3sse15.64--
1:13 PM41---10.43sse18.25--
11:13 AM379936.75-14.77sse22.59--
10:13 AM368231.05-15.64sse23.46--
9:13 AM357527.89-15.64sse21.72--
8:13 AM33---13.9sse19.12--
6:13 AM3214-11.73-8.69sse12.17--
5:13 AM30---3.48ese7.82--
4:13 AM28---4.34ese7.82--
3:13 AM30---4.34n10.43--
2:13 AM29---7.82n11.3--
1:13 AM29---7.82n11.3--
12:13 AM31---6.95n10.43--
High: 46ºf @2:13 AM    Low: 31ºf @11:13 PM    Approx. Precipitation / Rain Total: 0 in.
Time (PST)Temp. (ºf)Humidity (%)Dew Point (ºf)Barometer (inHG)Wind Speed (mph)Wind DirectionWind Gust (mph)1hr. Precip / Rain Total (in.)Snow Depth
11:13 PM31---6.95n13.03--
10:13 PM32---6.08n12.17--
9:13 PM33---8.69n12.17--
8:13 PM35---8.69n13.9--
7:13 PM37---11.3n14.77--
6:13 PM40---8.69n17.38--
5:13 PM40---8.69nnw15.64--
4:13 PM42---6.95nnw15.64--
3:13 PM42---8.69nnw15.64--
2:13 PM45---7.82nw21.72--
1:13 PM44---9.56nw18.25--
12:13 PM44---7.82nw15.64--
11:13 AM44---8.69nnw18.25--
10:13 AM44---10.43n19.12--
9:13 AM44---8.69nnw18.25--
8:13 AM45---7.82nnw18.25--
7:13 AM45---9.56n14.77--
5:13 AM45---6.08nnw10.43--
4:13 AM45---3.48nnw9.56--
3:13 AM45---3.48nnw10.43--
2:13 AM46---4.34wnw12.17--
1:13 AM46---7.82w12.17--
12:13 AM45---5.21nne12.17--
High: 49ºf @3:13 PM    Low: 38ºf @2:13 AM    Approx. Precipitation / Rain Total: 0 in.
Time (PST)Temp. (ºf)Humidity (%)Dew Point (ºf)Barometer (inHG)Wind Speed (mph)Wind DirectionWind Gust (mph)1hr. Precip / Rain Total (in.)Snow Depth
11:13 PM47---4.34w6.08--
10:13 PM47---3.48n8.69--
9:13 PM47---6.08ne10.43--
8:13 PM45---2.61ese7.82--
7:13 PM44---0.87se6.08--
6:13 PM44---1.74ene6.95--
5:13 PM45---0.87sse5.21--
4:13 PM478843.63-3.48s6.08--
3:13 PM497742.11-3.48ne8.69--
2:13 PM494-23.22-5.21sw10.43--
1:13 PM44---6.95sse10.43--
12:13 PM45---5.21se13.9--
11:13 AM4510045-6.08sse12.17--
9:13 AM449241.83-4.34ne11.3--
8:13 AM449843.47-6.95ene12.17--
7:13 AM429540.67-4.34ese6.08--
6:13 AM3910039-6.08sse10.43--
5:13 AM4210042-4.34ese10.43--
4:13 AM458239.84-5.21nnw8.69--
3:13 AM3910039-2.61s6.95--
2:13 AM3810038-3.48sse6.08--
1:13 AM429941.74-2.61ne4.34--
High: 41ºf @2:13 PM    Low: 32ºf @2:13 AM    Approx. Precipitation / Rain Total: 0 in.
Time (PST)Temp. (ºf)Humidity (%)Dew Point (ºf)Barometer (inHG)Wind Speed (mph)Wind DirectionWind Gust (mph)1hr. Precip / Rain Total (in.)Snow Depth
11:13 PM386627.67-2.61sse10.43--
9:13 PM381-54.35-4.34se6.95--
8:13 PM383210.79-2.61ese7.82--
7:13 PM3910039-0.87ne6.95--
6:13 PM38---2.61ene8.69--
5:13 PM38---7.82se10.43--
4:13 PM397130.41-7.82se12.17--
3:13 PM41191.94-6.08sse8.69--
2:13 PM414-28.85-6.95sse11.3--
1:13 PM413213.43-4.34se8.69--
12:13 PM419439.41-6.95sse9.56--
11:13 AM418837.72-3.48sse6.95--
10:13 AM417433.36-5.21n7.82--
9:13 AM378332.33-4.34ne7.82--
8:13 AM3510035-4.34ene5.21--
7:13 AM3310033-3.48ne5.21--
6:13 AM3310033-3.48nne4.34--
5:13 AM3310033-0.87ese5.21--
4:13 AM3310033-4.34wnw6.08--
3:13 AM321-58.08-3.48se9.56--
2:13 AM32---6.95sse9.56--
1:13 AM32---0.87ssw4.34--
12:13 AM32---4.34sse9.56--
High: 36ºf @1:13 PM    Low: 30ºf @6:13 AM    Approx. Precipitation / Rain Total: 0 in.
Time (PST)Temp. (ºf)Humidity (%)Dew Point (ºf)Barometer (inHG)Wind Speed (mph)Wind DirectionWind Gust (mph)1hr. Precip / Rain Total (in.)Snow Depth
11:13 PM32---6.95se13.03--
10:13 PM32---8.69se12.17--
9:13 PM33---6.95se8.69--
8:13 PM32---5.21se7.82--
7:13 PM32---3.48e5.21--
6:13 PM31---2.61ne5.21--
5:13 PM31---2.61nne4.34--
4:13 PM32---3.48n6.08--
3:13 PM32---4.34n9.56--
2:13 PM32---6.08n9.56--
1:13 PM36---5.21se8.69--
12:13 PM33---5.21n18.25--
11:13 AM36---15.64sse22.59--
10:13 AM33---10.43sse13.03--
9:13 AM32---3.48sw6.95--
8:13 AM31---3.48nw9.56--
7:13 AM31---4.34ssw7.82--
6:13 AM30-----5.21--
5:13 AM31-----4.34--
4:13 AM31---2.61nnw6.08--
3:13 AM31---2.61nw4.34--
2:13 AM31-----3.48--
1:13 AM31---3.48w7.82--
12:13 AM31---4.34nnw6.08--
High: 45ºf @1:13 PM    Low: 28ºf @5:13 AM    Approx. Precipitation / Rain Total: 0 in.
Time (PST)Temp. (ºf)Humidity (%)Dew Point (ºf)Barometer (inHG)Wind Speed (mph)Wind DirectionWind Gust (mph)1hr. Precip / Rain Total (in.)Snow Depth
11:13 PM32---2.61wnw6.08--
10:13 PM32---3.48wnw6.95--
9:13 PM32---3.48w8.69--
8:13 PM32---3.48ssw8.69--
7:13 PM33---4.34w8.69--
6:13 PM33---2.61w7.82--
5:13 PM34---4.34nw10.43--
4:13 PM35---6.08nw9.56--
3:13 PM364-32.38-3.48nne8.69--
2:13 PM424421.69-4.34nnw9.56--
1:13 PM458841.66-5.21nw9.56--
12:13 PM454-26.03-5.21nw12.17--
11:13 AM42---6.95wnw11.3--
10:13 AM37---8.69nne13.03--
9:13 AM36---8.69n13.03--
8:13 AM33---8.69n11.3--
7:13 AM32---5.21n11.3--
6:13 AM31---5.21n8.69--
5:13 AM28---6.95n9.56--
4:13 AM3110031-4.34n9.56--
3:13 AM2910029-5.21nnw8.69--
2:13 AM3010030-5.21nnw7.82--
1:13 AM2910029-5.21nnw7.82--
12:13 AM289927.76-3.48nnw6.08--
High: 41ºf @11:13 AM    Low: 27ºf @7:13 PM    Approx. Precipitation / Rain Total: 0 in.
Time (PST)Temp. (ºf)Humidity (%)Dew Point (ºf)Barometer (inHG)Wind Speed (mph)Wind DirectionWind Gust (mph)1hr. Precip / Rain Total (in.)Snow Depth
11:13 PM28---2.61nw5.21--
10:13 PM28---3.48n6.08--
9:13 PM28---3.48nnw6.08--
8:13 PM28---4.34n9.56--
7:13 PM27---6.08nne7.82--
6:13 PM28---4.34n6.95--
5:13 PM28---5.21n7.82--
4:13 PM28---6.08n10.43--
3:13 PM31---10.43n13.9--
2:13 PM33---6.08nne8.69--
1:13 PM33---5.21nne10.43--
12:13 PM36---6.95n13.03--
11:13 AM41---10.43sse20.86--
10:13 AM40---14.77sse22.59--
9:13 AM39---13.9sse20.86--
8:13 AM39---9.56sse15.64--
7:13 AM3810038-6.08sse9.56--
6:13 AM4110041---3.48--
5:13 AM4110041-3.48wnw6.08--
4:13 AM4010040-4.34nw6.08--
3:13 AM408435.56-3.48nnw6.95--
2:13 AM407532.73-4.34nw7.82--
1:13 AM419439.41-5.21n9.56--
12:13 AM416228.99-6.95n8.69--
High: 50ºf @12:13 PM    Low: 39ºf @7:13 PM    Approx. Precipitation / Rain Total: 0 in.
Time (PST)Temp. (ºf)Humidity (%)Dew Point (ºf)Barometer (inHG)Wind Speed (mph)Wind DirectionWind Gust (mph)1hr. Precip / Rain Total (in.)Snow Depth
11:13 PM4117-0.43-3.48nnw6.08--
10:13 PM40---4.34nw8.69--
9:13 PM40---3.48wsw9.56--
8:13 PM39---5.21wnw8.69--
7:13 PM393312.36-2.61nnw9.56--
6:13 PM4010040-5.21nnw9.56--
5:13 PM40---5.21n7.82--
4:13 PM40---3.48nnw9.56--
3:13 PM415325.2-6.95n8.69--
2:13 PM431-51.26-3.48n10.43--
1:13 PM437-16.86-6.95n9.56--
12:13 PM5010050-4.34n7.82--
11:13 AM4710047-5.21n10.43--
10:13 AM446533-7.82s17.38--
9:13 AM433718.53-13.9sse18.25--
8:13 AM4314-2.89-9.56sse18.25--
7:13 AM4510045-8.69sse18.25--
6:13 AM4410044-11.3s24.33--
5:13 AM429340.12-8.69sse17.38--
3:13 AM447034.85-14.77sse22.59--
2:13 AM447235.56-16.51sse26.07--
1:13 AM457236.53-20.86sse31.28--
12:13 AM476937.36-23.46sse34.76--
High: 51ºf @2:13 PM    Low: 44ºf @7:13 AM    Approx. Precipitation / Rain Total: 0 in.
Time (PST)Temp. (ºf)Humidity (%)Dew Point (ºf)Barometer (inHG)Wind Speed (mph)Wind DirectionWind Gust (mph)1hr. Precip / Rain Total (in.)Snow Depth
11:13 PM467137.13-27.81sse34.76--
10:13 PM477138.09-24.33sse33.89--
9:13 PM477238.45-22.59sse31.28--
8:13 PM478141.48-21.72sse29.55--
7:13 PM478241.79-19.12sse26.07--
4:13 PM508144.4-19.99sse26.94--
2:13 PM518346.02-18.25sse26.07--
1:13 PM517844.38-19.12sse33.89--
12:13 PM507040.61-27.81sse41.71--
10:13 AM486837.95-30.41sse40.84--
9:13 AM476636.24-31.28sse39.1--
8:13 AM466635.29-29.55sse37.37--
7:13 AM446633.38-25.2sse32.15--
6:13 AM446533-22.59sse28.68--
5:13 AM446733.76-20.86sse27.81--
4:13 AM456333.17-20.86sse28.68--
3:13 AM456533.95-22.59sse29.55--
2:13 AM456734.71-21.72sse31.28--
1:13 AM456533.95-24.33sse31.28--
12:13 AM466836.04-25.2sse33.02--
High: 58ºf @8:13 AM    Low: 45ºf @7:13 PM    Approx. Precipitation / Rain Total: 0 in.
Time (PST)Temp. (ºf)Humidity (%)Dew Point (ºf)Barometer (inHG)Wind Speed (mph)Wind DirectionWind Gust (mph)1hr. Precip / Rain Total (in.)Snow Depth
11:13 PM467036.77-23.46sse29.55--
10:13 PM457136.17-20.86sse26.94--
9:13 PM457035.81-17.38sse22.59--
8:13 PM467137.13-18.25sse24.33--
7:13 PM457236.53-18.25sse23.46--
6:13 PM467237.49-19.99sse26.94--
5:13 PM467538.53-19.12sse24.33--
4:13 PM497541.43-19.12sse25.2--
3:13 PM517744.05-19.99sse24.33--
2:13 PM527644.67-18.25se23.46--
1:13 PM537344.58-17.38se21.72--
12:13 PM536842.72-14.77sse18.25--
11:13 AM506438.31-13.03sse18.25--
10:13 AM486336.01-10.43sse17.38--
9:13 AM544734.23-1.74sse6.08--
8:13 AM584134.43-5.21wnw6.95--
7:13 AM533928.71-6.08wnw6.95--
6:13 AM522719.07-5.21nw6.95--
5:13 AM512819.06-5.21nw7.82--
4:13 AM513423.63-6.08nw7.82--
3:13 AM513926.92-6.08nw7.82--
2:13 AM514228.72-6.08nw7.82--
1:13 AM514329.3-5.21nw6.95--
12:13 AM514128.14-3.48nw8.69--
High: 52ºf @9:13 PM    Low: 29ºf @2:13 AM    Approx. Precipitation / Rain Total: 0 in.
Time (PST)Temp. (ºf)Humidity (%)Dew Point (ºf)Barometer (inHG)Wind Speed (mph)Wind DirectionWind Gust (mph)1hr. Precip / Rain Total (in.)Snow Depth
11:13 PM503926.03-6.08n8.69--
10:13 PM524531.32-3.48nw4.34--
9:13 PM523726.54-3.48nw6.95--
8:13 PM506739.48-5.21nw6.95--
7:13 PM5010050-5.21nw6.08--
6:13 PM4410044-5.21n8.69--
5:13 PM4710047-6.08nnw7.82--
4:13 PM518245.7-1.74wsw5.21--
3:13 PM49---0.87ese10.43--
2:13 PM46---7.82sse13.9--
1:13 PM44238.61-11.3sse13.03--
12:13 PM449943.74-7.82sse14.77--
11:13 AM4017-1.25-12.17sse21.72--
10:13 AM386226.15-16.51sse30.41--
9:13 AM365019.19-22.59sse31.28--
8:13 AM344313.88-16.51sse22.59--
7:13 AM334514-14.77sse18.25--
6:13 AM314813.64-10.43sse19.99--
5:13 AM314914.11-15.64sse23.46--
3:13 AM305314.97-13.9sse19.12--
2:13 AM295615.29-11.3sse22.59--
1:13 AM295715.7-17.38sse24.33--
12:13 AM305415.39-20.86sse39.1--
High: 34ºf @3:13 PM    Low: 28ºf @4:13 AM    Approx. Precipitation / Rain Total: 0 in.
Time (PST)Temp. (ºf)Humidity (%)Dew Point (ºf)Barometer (inHG)Wind Speed (mph)Wind DirectionWind Gust (mph)1hr. Precip / Rain Total (in.)Snow Depth
11:13 PM305314.97-33.02sse43.45--
10:13 PM315416.33-35.63sse45.19--
9:13 PM315315.9-35.63sse45.19--
8:13 PM315215.46-32.15sse43.45--
7:13 PM315717.57-32.15sse46.06--
6:13 PM316420.27-30.41sse39.1--
5:13 PM326621.95-30.41sse40.84--
4:13 PM336923.96-31.28sse43.45--
3:13 PM347125.6-31.28sse40.84--
2:13 PM337826.9-31.28sse41.71--
1:13 PM348329.39-28.68sse39.97--
12:13 PM338027.52-32.15sse45.19--
11:13 AM329229.94-32.15sse43.45--
10:13 AM338729.56-33.89sse46.92--
9:13 AM319930.75-27.81sse38.23--
8:13 AM2910029-24.33sse34.76--
7:13 AM2810028-25.2sse33.89--
6:13 AM2810028-24.33sse33.02--
5:13 AM2810028-22.59sse28.68--
4:13 AM2810028-22.59sse32.15--
3:13 AM2810028-21.72sse33.89--
2:13 AM299828.51-23.46sse30.41--
1:13 AM299628.01-20.86sse27.81--
12:13 AM299527.75-20.86sse30.41--
High: 36ºf @1:13 PM    Low: 29ºf @6:13 PM    Approx. Precipitation / Rain Total: 0 in.
Time (PST)Temp. (ºf)Humidity (%)Dew Point (ºf)Barometer (inHG)Wind Speed (mph)Wind DirectionWind Gust (mph)1hr. Precip / Rain Total (in.)Snow Depth
11:13 PM299527.75-22.59sse27.81--
10:13 PM299928.75-21.72sse27.81--
9:13 PM2910029-17.38sse23.46--
8:13 PM2910029-20.86sse26.94--
7:13 PM2910029-19.12sse26.94--
6:13 PM2910029-16.51sse20.86--
5:13 PM2910029-13.9sse19.12--
4:13 PM3010030-11.3sse16.51--
3:13 PM3110031-4.34sse7.82--
2:13 PM3310033-3.48s5.21--
1:13 PM3610036-0.87s2.61--
12:13 PM339130.67-0.87wnw0.87--
11:13 AM3010030-0.87w0.87--
High: 33ºf @12:13 AM    Low: 27ºf @4:13 AM    Approx. Precipitation / Rain Total: 0 in.
Time (PST)Temp. (ºf)Humidity (%)Dew Point (ºf)Barometer (inHG)Wind Speed (mph)Wind DirectionWind Gust (mph)1hr. Precip / Rain Total (in.)Snow Depth
9:13 AM28---6.08nnw11.3--
8:13 AM28---6.08n11.3--
7:13 AM28---6.08nnw10.43--
6:13 AM28---6.95n10.43--
5:13 AM28---5.21n14.77--
4:13 AM27---9.56n15.64--
3:13 AM29---6.08nnw21.72--
2:13 AM29---6.08nnw13.9--
1:13 AM32---3.48nnw8.69--
12:13 AM33---6.08nne8.69--
High: 37ºf @6:13 PM    Low: 33ºf @11:13 PM    Approx. Precipitation / Rain Total: 0 in.
Time (PST)Temp. (ºf)Humidity (%)Dew Point (ºf)Barometer (inHG)Wind Speed (mph)Wind DirectionWind Gust (mph)1hr. Precip / Rain Total (in.)Snow Depth
11:13 PM33---2.61nw8.69--
10:13 PM33---1.74wnw13.9--
9:13 PM33---3.48ne10.43--
7:13 PM35---46.92s57.35--
6:13 PM37---39.1s59.96--
Past Weather Disclaimer

Grapevine CA Past Weather Nearby

More Local Information

Bookmark and Share

Grapevine weather and traffic updates by locals

  • LocalConditions.com's report:

    @tanner - RESPONSE FROM LC: Thursday night into Friday morning has a 50% change of rain and snow - the storm is forecasted to progress further into the day with increased and expected chances snow over the Grapevine, through Saturday. If at any point snow begins to stick, CHP will close the Grapevine for a period of time. Depending on the amount and duration of snow fall and Caltrans's ability to clear it, that portion of the I5 will be closed for hours at a time.

    Tue, Jan 17th 08:46:56 AM PDT

  • tanner's report:

    what are the chances of the Grapevine being closed Friday morning?

    Mon, Jan 16th 04:53:40 PM PDT

  • LocalConditions.com's report:

    @Julie - RESPONSE FROM LC: When snow fall begins on the I5 - through the Grapevine - and starts to "stick" - CHP simply closes this stretch of hwy. This is to say, you should carry chains, but you would not be able to use them there.

    Mon, Jan 16th 12:36:15 PM PDT

  • Julie's report:

    We are traveling on the grapevine Saturday early morning, will I need chains.

    Mon, Jan 16th 10:01:42 AM PDT

Write your own Grapevine, California report, forecast, or traffic update:

Please note by clicking on "Post" you acknowledge that you have read the Terms of Service and the Grapevine, CA report and/or forecast you are posting is in compliance with such terms. Be respectful. An inappropriate Grapevine, CA report and/or forecast will be removed by a moderator.